Cannock, United Kingdom
Current Conditions -  °F | °C
As of 12:50 AM on Tuesday 27 Jan 2015 (Local Time) from EGBB Reporting Station
Few Clouds Few Clouds  
Wind Chill: 36°   Ceiling: Unl
Heat Index: 41°   Visibility: 6mi
Dew Point: 34°   Wind: 7mph
Humidity: 76%   Direction: 290°WNW
Pressure: 30.36"   Gusts: NA
Location:  52.69°N, 2.03°W
Report Text: EGBB 270050Z AUTO 29006KT 9999 FEW033/// 05/01 Q1028
Loading
Personal Weather Stations






























Interactive Weather Map New forecast layout! Learn more

10-Day Weather Forecast

Advertisements
Track Severe Weather on mobile